createdAt,value
2019-03-26T00:00:19.864Z,6.67
2019-03-26T00:01:19.857Z,6.74
2019-03-26T00:02:19.846Z,6.72
2019-03-26T00:03:19.841Z,6.72
2019-03-26T00:04:19.830Z,6.69
2019-03-26T00:05:19.818Z,6.66
2019-03-26T00:06:19.806Z,6.74
2019-03-26T00:07:19.802Z,6.74
2019-03-26T00:08:19.788Z,6.77
2019-03-26T00:09:19.789Z,6.70
2019-03-26T00:10:19.762Z,6.74
2019-03-26T00:11:19.756Z,6.67
2019-03-26T00:12:19.746Z,6.74
2019-03-26T00:13:19.738Z,6.72
2019-03-26T00:14:19.715Z,6.74
2019-03-26T00:15:19.719Z,6.77
2019-03-26T00:16:19.705Z,6.74
2019-03-26T00:17:19.696Z,6.64
2019-03-26T00:18:19.682Z,6.77
2019-03-26T00:19:19.672Z,6.60
2019-03-26T00:20:19.667Z,6.74
2019-03-26T00:21:19.652Z,6.74
2019-03-26T00:22:19.641Z,6.63
2019-03-26T00:23:19.696Z,6.72
2019-03-26T00:24:19.621Z,6.77
2019-03-26T00:25:19.612Z,6.72
2019-03-26T00:26:19.612Z,6.66
2019-03-26T00:27:19.591Z,6.77
2019-03-26T00:28:19.574Z,6.69
2019-03-26T00:29:19.561Z,6.69
2019-03-26T00:30:19.557Z,6.66
2019-03-26T00:31:19.548Z,6.69
2019-03-26T00:32:19.541Z,6.70
2019-03-26T00:33:19.526Z,6.64
2019-03-26T00:34:19.905Z,6.75
2019-03-26T00:35:19.501Z,6.74
2019-03-26T00:36:19.491Z,6.64
2019-03-26T00:37:19.481Z,6.67
2019-03-26T00:38:19.473Z,6.66
2019-03-26T00:39:19.471Z,6.64
2019-03-26T00:40:19.453Z,6.67
2019-03-26T00:41:19.442Z,6.64
2019-03-26T00:42:19.430Z,6.64
2019-03-26T00:43:19.423Z,6.63
2019-03-26T00:44:19.411Z,6.74
2019-03-26T00:45:19.405Z,6.69
2019-03-26T00:46:19.411Z,6.69
2019-03-26T00:47:19.380Z,6.69
2019-03-26T00:48:19.372Z,6.69
2019-03-26T00:49:19.357Z,6.70
2019-03-26T00:50:19.348Z,6.69
2019-03-26T00:51:19.339Z,6.67
2019-03-26T00:52:19.330Z,6.62
2019-03-26T00:53:19.317Z,6.60
2019-03-26T00:54:19.310Z,6.64
2019-03-26T00:55:22.849Z,6.64
2019-03-26T00:56:19.285Z,6.64
2019-03-26T00:57:19.279Z,6.62
2019-03-26T00:58:19.267Z,6.57
2019-03-26T00:59:19.256Z,6.56
2019-03-26T01:00:19.247Z,6.52
2019-03-26T01:01:19.238Z,6.56
2019-03-26T01:02:19.226Z,6.51
2019-03-26T01:03:19.218Z,6.51
2019-03-26T01:04:31.773Z,6.59
2019-03-26T01:05:19.192Z,6.57
2019-03-26T01:06:19.177Z,6.52
2019-03-26T01:07:19.173Z,6.54
2019-03-26T01:08:19.162Z,6.49
2019-03-26T01:09:19.154Z,6.49
2019-03-26T01:10:19.142Z,6.62
2019-03-26T01:11:19.128Z,6.49
2019-03-26T01:12:19.144Z,6.51
2019-03-26T01:13:19.142Z,6.63
2019-03-26T01:14:19.094Z,6.54
2019-03-26T01:15:19.091Z,6.52
2019-03-26T01:16:19.078Z,6.54
2019-03-26T01:17:19.073Z,6.54
2019-03-26T01:18:19.052Z,6.52
2019-03-26T01:19:19.053Z,-40.00
2019-03-26T01:20:19.035Z,6.51
2019-03-26T01:21:19.027Z,6.46
2019-03-26T01:22:19.011Z,-40.00
2019-03-26T01:23:18.998Z,-40.00
2019-03-26T01:24:19.901Z,-40.00
2019-03-26T01:25:18.986Z,-40.00
2019-03-26T01:26:18.971Z,-40.00
2019-03-26T01:27:18.959Z,6.51
2019-03-26T01:28:18.962Z,-40.00
2019-03-26T01:29:19.906Z,-40.00
2019-03-26T01:30:18.929Z,6.49
2019-03-26T01:31:18.932Z,6.46
2019-03-26T01:32:18.910Z,6.54
2019-03-26T01:33:18.902Z,6.45
2019-03-26T01:34:18.893Z,6.45
2019-03-26T01:35:18.879Z,6.42
2019-03-26T01:36:18.876Z,6.45
2019-03-26T01:37:18.857Z,6.48
2019-03-26T01:38:18.851Z,6.45
2019-03-26T01:39:18.836Z,6.49
2019-03-26T01:40:18.843Z,-40.00
2019-03-26T01:41:18.820Z,6.48
2019-03-26T01:42:18.827Z,6.51
2019-03-26T01:43:18.798Z,-40.00
2019-03-26T01:44:18.785Z,-40.00
2019-03-26T01:45:18.771Z,-40.00
2019-03-26T01:46:18.757Z,-40.00
2019-03-26T01:47:18.752Z,-40.00
2019-03-26T01:48:18.745Z,-40.00
2019-03-26T01:49:18.730Z,-40.00
2019-03-26T01:50:18.725Z,-40.00
2019-03-26T01:51:18.704Z,6.44
2019-03-26T01:52:18.703Z,-40.00
2019-03-26T01:53:20.297Z,6.39
2019-03-26T01:54:18.763Z,6.44
2019-03-26T01:55:18.695Z,6.41
2019-03-26T01:56:18.661Z,-40.00
2019-03-26T01:57:18.645Z,6.46
2019-03-26T01:58:18.634Z,6.36
2019-03-26T01:59:18.646Z,6.38
2019-03-26T02:00:18.624Z,6.38
2019-03-26T02:01:18.605Z,6.36
2019-03-26T02:02:18.598Z,6.35
2019-03-26T02:03:18.579Z,6.35
2019-03-26T02:04:18.575Z,-40.00
2019-03-26T02:05:18.562Z,-40.00
2019-03-26T02:06:18.557Z,-40.00
2019-03-26T02:07:18.543Z,-40.00
2019-03-26T02:08:18.530Z,-40.00
2019-03-26T02:09:18.519Z,-40.00
2019-03-26T02:10:18.516Z,6.28
2019-03-26T02:11:18.498Z,6.35
2019-03-26T02:12:18.489Z,6.26
2019-03-26T02:13:18.476Z,6.39
2019-03-26T02:14:18.470Z,6.39
2019-03-26T02:15:18.456Z,6.35
2019-03-26T02:16:18.441Z,6.33
2019-03-26T02:17:18.436Z,6.39
2019-03-26T02:18:18.426Z,6.39
2019-03-26T02:19:18.417Z,6.39
2019-03-26T02:20:18.407Z,6.36
2019-03-26T02:21:18.393Z,6.39
2019-03-26T02:22:18.386Z,6.35
2019-03-26T02:23:18.371Z,6.35
2019-03-26T02:24:18.365Z,6.33
2019-03-26T02:25:18.355Z,6.39
2019-03-26T02:26:18.343Z,6.35
2019-03-26T02:27:18.328Z,6.28
2019-03-26T02:28:18.319Z,6.36
2019-03-26T02:29:18.307Z,6.28
2019-03-26T02:30:18.309Z,6.28
2019-03-26T02:31:18.290Z,6.30
2019-03-26T02:32:18.289Z,6.38
2019-03-26T02:33:18.265Z,6.35
2019-03-26T02:34:18.257Z,6.31
2019-03-26T02:35:19.248Z,-40.00
2019-03-26T02:36:18.261Z,-40.00
2019-03-26T02:37:18.227Z,-40.00
2019-03-26T02:38:18.213Z,-40.00
2019-03-26T02:39:18.200Z,-40.00
2019-03-26T02:40:18.206Z,6.20
2019-03-26T02:41:18.191Z,6.31
2019-03-26T02:42:18.185Z,6.30
2019-03-26T02:43:18.162Z,6.30
2019-03-26T02:44:18.159Z,6.28
2019-03-26T02:45:18.142Z,6.33
2019-03-26T02:46:18.142Z,6.31
2019-03-26T02:47:18.123Z,6.28
2019-03-26T02:48:18.119Z,6.27
2019-03-26T02:49:18.092Z,6.24
2019-03-26T02:50:18.081Z,6.24
2019-03-26T02:51:18.075Z,6.27
2019-03-26T02:52:18.064Z,6.28
2019-03-26T02:53:18.055Z,6.33
2019-03-26T02:54:18.043Z,6.28
2019-03-26T02:55:18.040Z,6.27
2019-03-26T02:56:18.018Z,6.30
2019-03-26T02:57:18.012Z,6.26
2019-03-26T02:58:18.012Z,6.27
2019-03-26T02:59:18.005Z,6.30
2019-03-26T03:00:17.982Z,6.20
2019-03-26T03:01:17.969Z,6.28
2019-03-26T03:02:17.971Z,6.24
2019-03-26T03:03:17.955Z,6.17
2019-03-26T03:04:32.927Z,6.27
2019-03-26T03:05:34.225Z,6.31
2019-03-26T03:06:17.938Z,6.27
2019-03-26T03:07:17.905Z,6.24
2019-03-26T03:08:17.898Z,6.30
2019-03-26T03:09:17.885Z,6.30
2019-03-26T03:10:17.875Z,6.27
2019-03-26T03:11:17.859Z,6.24
2019-03-26T03:12:17.854Z,6.28
2019-03-26T03:13:17.845Z,6.28
2019-03-26T03:14:17.833Z,6.31
2019-03-26T03:15:17.828Z,6.26
2019-03-26T03:16:17.816Z,6.26
2019-03-26T03:17:17.795Z,6.19
2019-03-26T03:18:17.785Z,6.22
2019-03-26T03:19:17.784Z,6.19
2019-03-26T03:20:17.777Z,-40.00
2019-03-26T03:21:17.751Z,-40.00
2019-03-26T03:22:17.763Z,-40.00
2019-03-26T03:23:17.735Z,6.24
2019-03-26T03:24:17.726Z,6.28
2019-03-26T03:25:18.432Z,6.26
2019-03-26T03:26:17.703Z,6.26
2019-03-26T03:27:17.702Z,6.20
2019-03-26T03:28:17.705Z,6.27
2019-03-26T03:29:17.672Z,6.28
2019-03-26T03:30:17.658Z,6.27
2019-03-26T03:31:17.652Z,6.27
2019-03-26T03:32:17.767Z,-40.00
2019-03-26T03:33:17.649Z,-40.00
2019-03-26T03:34:17.619Z,-40.00
2019-03-26T03:35:17.614Z,6.27
2019-03-26T03:36:17.600Z,6.16
2019-03-26T03:37:17.589Z,6.17
2019-03-26T03:38:17.574Z,6.26
2019-03-26T03:39:17.567Z,6.16
2019-03-26T03:40:17.553Z,6.14
2019-03-26T03:41:17.545Z,6.26
2019-03-26T03:42:17.542Z,6.26
2019-03-26T03:43:17.530Z,6.27
2019-03-26T03:44:17.515Z,6.16
2019-03-26T03:45:17.497Z,6.19
2019-03-26T03:46:17.485Z,-40.00
2019-03-26T03:47:17.485Z,6.12
2019-03-26T03:48:17.473Z,6.22
2019-03-26T03:49:17.459Z,6.20
2019-03-26T03:50:17.449Z,-40.00
2019-03-26T03:51:17.438Z,-40.00
2019-03-26T03:52:17.427Z,-40.00
2019-03-26T03:53:17.418Z,-40.00
2019-03-26T03:54:17.413Z,-40.00
2019-03-26T03:55:17.389Z,-40.00
2019-03-26T03:56:17.382Z,6.17
2019-03-26T03:57:17.382Z,6.28
2019-03-26T03:58:17.366Z,6.27
2019-03-26T03:59:17.358Z,-40.00
2019-03-26T04:00:17.348Z,-40.00
2019-03-26T04:01:17.326Z,-40.00
2019-03-26T04:02:17.329Z,-40.00
2019-03-26T04:03:17.317Z,6.22
2019-03-26T04:04:17.296Z,6.30
2019-03-26T04:05:17.287Z,-40.00
2019-03-26T04:06:17.277Z,-40.00
2019-03-26T04:07:17.268Z,-40.00
2019-03-26T04:08:17.259Z,-40.00
2019-03-26T04:09:17.244Z,-40.00
2019-03-26T04:10:17.263Z,-40.00
2019-03-26T04:11:17.242Z,-40.00
2019-03-26T04:12:17.218Z,6.30
2019-03-26T04:13:17.206Z,6.33
2019-03-26T04:14:17.189Z,6.31
2019-03-26T04:15:17.194Z,6.28
2019-03-26T04:16:17.174Z,6.30
2019-03-26T04:17:17.163Z,6.28
2019-03-26T04:18:17.153Z,6.27
2019-03-26T04:19:17.141Z,6.30
2019-03-26T04:20:17.129Z,6.28
2019-03-26T04:21:17.116Z,-40.00
2019-03-26T04:22:17.111Z,-40.00
2019-03-26T04:23:17.097Z,-40.00
2019-03-26T04:24:17.091Z,-40.00
2019-03-26T04:25:17.076Z,-40.00
2019-03-26T04:26:17.064Z,6.28
2019-03-26T04:27:17.074Z,6.27
2019-03-26T04:28:17.053Z,6.28
2019-03-26T04:29:17.054Z,6.22
2019-03-26T04:30:17.022Z,6.22
2019-03-26T04:31:17.012Z,-40.00
2019-03-26T04:32:17.007Z,6.22
2019-03-26T04:33:16.992Z,6.31
2019-03-26T04:34:16.984Z,6.22
2019-03-26T04:35:16.965Z,-40.00
2019-03-26T04:36:25.326Z,-40.00
2019-03-26T04:37:16.943Z,-40.00
2019-03-26T04:38:16.943Z,-40.00
2019-03-26T04:39:16.929Z,-40.00
2019-03-26T04:40:16.919Z,-40.00
2019-03-26T04:41:16.926Z,-40.00
2019-03-26T04:42:16.901Z,-40.00
2019-03-26T04:43:18.982Z,-40.00
2019-03-26T04:44:16.875Z,-40.00
2019-03-26T04:45:16.863Z,-40.00
2019-03-26T04:46:16.857Z,-40.00
2019-03-26T04:47:16.844Z,-40.00
2019-03-26T04:48:16.842Z,-40.00
2019-03-26T04:49:16.835Z,-40.00
2019-03-26T04:50:16.808Z,-40.00
2019-03-26T04:51:16.801Z,-40.00
2019-03-26T04:52:16.795Z,-40.00
2019-03-26T04:53:16.782Z,-40.00
2019-03-26T04:54:16.760Z,-40.00
2019-03-26T04:55:16.761Z,-40.00
2019-03-26T04:56:16.747Z,-40.00
2019-03-26T04:57:16.732Z,-40.00
2019-03-26T04:58:16.730Z,6.12
2019-03-26T04:59:16.718Z,6.09
2019-03-26T05:00:16.708Z,6.12
2019-03-26T05:01:16.710Z,6.07
2019-03-26T05:02:16.688Z,-40.00
2019-03-26T05:03:16.669Z,6.07
2019-03-26T05:04:16.668Z,6.07
2019-03-26T05:05:16.655Z,6.09
2019-03-26T05:06:16.651Z,6.12
2019-03-26T05:07:16.627Z,6.09
2019-03-26T05:08:16.634Z,6.12
2019-03-26T05:09:16.608Z,6.14
2019-03-26T05:10:16.601Z,6.11
2019-03-26T05:11:16.597Z,6.05
2019-03-26T05:12:16.576Z,6.12
2019-03-26T05:13:16.566Z,6.09
2019-03-26T05:14:16.565Z,6.11
2019-03-26T05:15:16.546Z,6.09
2019-03-26T05:16:16.531Z,-40.00
2019-03-26T05:17:16.523Z,-40.00
2019-03-26T05:18:16.511Z,-40.00
2019-03-26T05:19:16.499Z,-40.00
2019-03-26T05:20:16.501Z,-40.00
2019-03-26T05:21:16.477Z,6.07
2019-03-26T05:22:24.137Z,6.11
2019-03-26T05:23:16.464Z,6.09
2019-03-26T05:24:16.445Z,6.11
2019-03-26T05:25:16.437Z,6.11
2019-03-26T05:26:16.426Z,6.08
2019-03-26T05:27:16.415Z,6.04
2019-03-26T05:28:16.421Z,6.07
2019-03-26T05:29:16.411Z,5.98
2019-03-26T05:30:16.382Z,6.09
2019-03-26T05:31:16.372Z,6.07
2019-03-26T05:32:16.362Z,6.04
2019-03-26T05:33:16.356Z,6.02
2019-03-26T05:34:16.358Z,6.02
2019-03-26T05:35:16.341Z,6.01
2019-03-26T05:36:16.317Z,6.04
2019-03-26T05:37:16.312Z,6.11
2019-03-26T05:38:16.342Z,6.02
2019-03-26T05:39:16.291Z,6.02
2019-03-26T05:40:16.274Z,6.08
2019-03-26T05:41:16.260Z,-40.00
2019-03-26T05:42:16.253Z,-40.00
2019-03-26T05:43:16.246Z,-40.00
2019-03-26T05:44:16.230Z,-40.00
2019-03-26T05:45:16.223Z,5.99
2019-03-26T05:46:16.217Z,6.04
2019-03-26T05:47:16.197Z,6.05
2019-03-26T05:48:16.189Z,6.02
2019-03-26T05:49:16.189Z,-40.00
2019-03-26T05:50:16.167Z,5.94
2019-03-26T05:51:16.160Z,5.90
2019-03-26T05:52:16.159Z,5.93
2019-03-26T05:53:16.139Z,5.94
2019-03-26T05:54:16.130Z,5.93
2019-03-26T05:55:16.115Z,-40.00
2019-03-26T05:56:16.108Z,-40.00
2019-03-26T05:57:16.101Z,-40.00
2019-03-26T05:58:16.086Z,-40.00
2019-03-26T05:59:16.068Z,-40.00
2019-03-26T06:00:16.058Z,-40.00
2019-03-26T06:01:16.053Z,-40.00
2019-03-26T06:02:18.053Z,-40.00
2019-03-26T06:03:16.029Z,-40.00
2019-03-26T06:04:16.022Z,-40.00
2019-03-26T06:05:16.009Z,-40.00
2019-03-26T06:06:15.998Z,6.04
2019-03-26T06:07:16.005Z,5.87
2019-03-26T06:08:15.979Z,6.01
2019-03-26T06:09:15.969Z,5.99
2019-03-26T06:10:15.960Z,6.04
2019-03-26T06:11:15.942Z,6.01
2019-03-26T06:12:15.935Z,6.02
2019-03-26T06:13:15.940Z,6.05
2019-03-26T06:14:15.947Z,6.07
2019-03-26T06:15:15.988Z,5.98
2019-03-26T06:16:15.899Z,6.04
2019-03-26T06:17:15.884Z,5.98
2019-03-26T06:18:15.870Z,6.02
2019-03-26T06:19:15.862Z,5.98
2019-03-26T06:20:15.852Z,5.99
2019-03-26T06:21:15.838Z,5.98
2019-03-26T06:22:15.827Z,6.02
2019-03-26T06:23:15.825Z,6.02
2019-03-26T06:24:15.803Z,5.99
2019-03-26T06:25:15.906Z,5.93
2019-03-26T06:26:15.797Z,6.01
2019-03-26T06:27:15.864Z,6.02
2019-03-26T06:28:15.764Z,6.16
2019-03-26T06:29:15.949Z,6.09
2019-03-26T06:30:15.749Z,6.09
2019-03-26T06:31:15.748Z,6.16
2019-03-26T06:32:15.724Z,6.22
2019-03-26T06:33:15.788Z,6.17
2019-03-26T06:34:15.721Z,6.14
2019-03-26T06:35:15.690Z,6.17
2019-03-26T06:36:15.678Z,6.19
2019-03-26T06:37:18.039Z,6.20
2019-03-26T06:38:15.698Z,6.11
2019-03-26T06:39:15.649Z,6.09
2019-03-26T06:40:15.646Z,6.02
2019-03-26T06:41:15.623Z,6.08
2019-03-26T06:42:15.611Z,6.08
2019-03-26T06:43:15.608Z,6.11
2019-03-26T06:44:15.601Z,6.02
2019-03-26T06:45:15.585Z,6.04
2019-03-26T06:46:15.584Z,6.07
2019-03-26T06:47:15.564Z,6.05
2019-03-26T06:48:15.556Z,6.17
2019-03-26T06:49:15.547Z,6.14
2019-03-26T06:50:15.540Z,6.16
2019-03-26T06:51:15.523Z,6.20
2019-03-26T06:52:15.516Z,6.24
2019-03-26T06:53:15.502Z,6.17
2019-03-26T06:54:15.497Z,6.26
2019-03-26T06:55:15.482Z,6.28
2019-03-26T06:56:15.483Z,6.26
2019-03-26T06:57:15.457Z,6.30
2019-03-26T06:58:15.449Z,6.27
2019-03-26T06:59:15.443Z,6.28
2019-03-26T07:00:15.454Z,6.27
2019-03-26T07:01:15.414Z,6.33
2019-03-26T07:02:15.404Z,6.42
2019-03-26T07:03:15.394Z,6.39
2019-03-26T07:04:15.391Z,6.28
2019-03-26T07:05:15.375Z,6.31
2019-03-26T07:06:15.365Z,6.42
2019-03-26T07:07:15.357Z,6.42
2019-03-26T07:08:15.342Z,6.31
2019-03-26T07:09:15.327Z,6.44
2019-03-26T07:10:15.323Z,6.41
2019-03-26T07:11:15.310Z,6.45
2019-03-26T07:12:15.309Z,-40.00
2019-03-26T07:13:15.294Z,-40.00
2019-03-26T07:14:15.287Z,-40.00
2019-03-26T07:15:15.269Z,-40.00
2019-03-26T07:16:15.257Z,6.36
2019-03-26T07:17:15.261Z,6.46
2019-03-26T07:18:15.240Z,-40.00
2019-03-26T07:19:15.229Z,6.42
2019-03-26T07:20:15.290Z,6.45
2019-03-26T07:21:15.241Z,6.52
2019-03-26T07:22:15.197Z,6.54
2019-03-26T07:23:15.186Z,6.48
2019-03-26T07:24:15.188Z,6.42
2019-03-26T07:25:15.160Z,6.45
2019-03-26T07:26:15.166Z,6.41
2019-03-26T07:27:15.149Z,6.46
2019-03-26T07:28:15.132Z,6.54
2019-03-26T07:29:15.132Z,-40.00
2019-03-26T07:30:15.112Z,-40.00
2019-03-26T07:31:15.107Z,-40.00
2019-03-26T07:32:15.104Z,6.51
2019-03-26T07:33:15.088Z,6.62
2019-03-26T07:34:15.072Z,6.70
2019-03-26T07:35:15.064Z,6.66
2019-03-26T07:36:15.099Z,6.77
2019-03-26T07:37:15.043Z,6.75
2019-03-26T07:38:15.036Z,6.62
2019-03-26T07:39:15.020Z,6.72
2019-03-26T07:40:15.009Z,6.72
2019-03-26T07:41:15.003Z,6.62
2019-03-26T07:42:14.995Z,6.75
2019-03-26T07:43:14.980Z,6.74
2019-03-26T07:44:14.972Z,6.84
2019-03-26T07:45:14.969Z,-40.00
2019-03-26T07:46:14.952Z,-40.00
2019-03-26T07:47:14.945Z,-40.00
2019-03-26T07:48:14.929Z,-40.00
2019-03-26T07:49:14.929Z,-40.00
2019-03-26T07:50:14.903Z,-40.00
2019-03-26T07:51:14.918Z,-40.00
2019-03-26T07:52:15.685Z,-40.00
2019-03-26T07:53:14.918Z,-40.00
2019-03-26T07:54:14.886Z,-40.00
2019-03-26T07:55:14.874Z,-40.00
2019-03-26T07:56:14.846Z,-40.00
2019-03-26T07:57:14.832Z,-40.00
2019-03-26T07:58:14.827Z,-40.00
2019-03-26T07:59:14.820Z,7.45
2019-03-26T08:00:14.810Z,7.54
2019-03-26T08:01:14.797Z,7.53
2019-03-26T08:02:14.794Z,7.45
2019-03-26T08:03:14.773Z,7.48
2019-03-26T08:04:14.769Z,7.45
2019-03-26T08:05:14.764Z,7.60
2019-03-26T08:06:14.766Z,7.61
2019-03-26T08:07:14.737Z,7.73
2019-03-26T08:08:14.748Z,7.76
2019-03-26T08:09:14.746Z,7.80
2019-03-26T08:10:14.709Z,7.77
2019-03-26T08:11:14.700Z,7.95
2019-03-26T08:12:14.693Z,7.83
2019-03-26T08:13:14.686Z,7.93
2019-03-26T08:14:14.675Z,8.13
2019-03-26T08:15:14.714Z,8.12
2019-03-26T08:16:14.654Z,8.13
2019-03-26T08:17:14.643Z,8.15
2019-03-26T08:18:14.638Z,8.20
2019-03-26T08:19:14.624Z,8.34
2019-03-26T08:20:14.622Z,8.42
2019-03-26T08:21:14.636Z,8.42
2019-03-26T08:22:14.654Z,8.45
2019-03-26T08:23:14.604Z,8.24
2019-03-26T08:24:14.581Z,8.24
2019-03-26T08:25:14.569Z,-40.00
2019-03-26T08:26:14.566Z,-40.00
2019-03-26T08:27:14.599Z,-40.00
2019-03-26T08:28:14.579Z,8.24
2019-03-26T08:29:14.584Z,8.16
2019-03-26T08:30:14.544Z,8.27
2019-03-26T08:31:14.550Z,8.24
2019-03-26T08:32:14.535Z,8.27
2019-03-26T08:33:14.542Z,8.30
2019-03-26T08:34:14.539Z,8.31
2019-03-26T08:35:14.512Z,8.36
2019-03-26T08:36:14.492Z,8.44
2019-03-26T08:37:14.466Z,8.46
2019-03-26T08:38:14.461Z,8.45
2019-03-26T08:39:14.453Z,8.46
2019-03-26T08:40:14.437Z,8.37
2019-03-26T08:41:14.438Z,8.51
2019-03-26T08:42:14.417Z,8.64
2019-03-26T08:43:14.420Z,8.81
2019-03-26T08:44:14.408Z,-40.00
2019-03-26T08:45:14.394Z,-40.00
2019-03-26T08:46:14.388Z,8.87
2019-03-26T08:47:14.385Z,9.00
2019-03-26T08:48:14.371Z,-40.00
2019-03-26T08:49:14.384Z,-40.00
2019-03-26T08:50:14.360Z,-40.00
2019-03-26T08:51:14.349Z,-40.00
2019-03-26T08:52:14.350Z,-40.00
2019-03-26T08:53:14.347Z,-40.00
2019-03-26T08:54:14.345Z,-40.00
2019-03-26T08:55:14.317Z,-40.00
2019-03-26T08:56:14.308Z,-40.00
2019-03-26T08:57:14.301Z,-40.00
2019-03-26T08:58:14.284Z,-40.00
2019-03-26T08:59:14.283Z,-40.00
2019-03-26T09:00:14.274Z,-40.00
2019-03-26T09:01:14.270Z,-40.00
2019-03-26T09:02:14.256Z,-40.00
2019-03-26T09:03:14.249Z,-40.00
2019-03-26T09:04:14.248Z,9.68
2019-03-26T09:05:14.244Z,9.72
2019-03-26T09:06:14.225Z,-40.00
2019-03-26T09:07:15.039Z,-40.00
2019-03-26T09:08:24.715Z,-40.00
2019-03-26T09:09:14.207Z,-40.00
2019-03-26T09:10:14.197Z,-40.00
2019-03-26T09:11:14.192Z,-40.00
2019-03-26T09:12:14.187Z,-40.00
2019-03-26T09:13:14.173Z,-40.00
2019-03-26T09:14:14.157Z,-40.00
2019-03-26T09:15:14.759Z,-40.00
2019-03-26T09:16:14.156Z,-40.00
2019-03-26T09:17:14.142Z,-40.00
2019-03-26T09:18:14.131Z,-40.00
2019-03-26T09:19:14.125Z,-40.00
2019-03-26T09:20:14.112Z,-40.00
2019-03-26T09:21:14.106Z,-40.00
2019-03-26T09:22:14.099Z,-40.00
2019-03-26T09:23:14.092Z,-40.00
2019-03-26T09:24:14.090Z,-40.00
2019-03-26T09:25:14.076Z,-40.00
2019-03-26T09:26:14.064Z,-40.00
2019-03-26T09:27:14.088Z,-40.00
2019-03-26T09:28:14.100Z,-40.00
2019-03-26T09:29:14.039Z,-40.00
2019-03-26T09:30:14.027Z,-40.00
2019-03-26T09:31:14.015Z,-40.00
2019-03-26T09:32:14.013Z,-40.00
2019-03-26T09:33:14.022Z,-40.00
2019-03-26T09:34:13.996Z,-40.00
2019-03-26T09:35:13.982Z,-40.00
2019-03-26T09:36:13.976Z,-40.00
2019-03-26T09:37:13.966Z,-40.00
2019-03-26T09:38:13.955Z,-40.00
2019-03-26T09:39:13.954Z,-40.00
2019-03-26T09:40:13.942Z,-40.00
2019-03-26T09:41:13.934Z,-40.00
2019-03-26T09:42:13.923Z,-40.00
2019-03-26T09:43:13.908Z,-40.00
2019-03-26T09:44:13.904Z,-40.00
2019-03-26T09:45:13.899Z,-40.00
2019-03-26T09:46:13.883Z,-40.00
2019-03-26T09:47:16.542Z,-40.00
2019-03-26T09:48:13.868Z,-40.00
2019-03-26T09:49:13.858Z,-40.00
2019-03-26T09:50:13.845Z,-40.00
2019-03-26T09:51:13.837Z,-40.00
2019-03-26T09:52:13.831Z,-40.00
2019-03-26T09:53:13.831Z,-40.00
2019-03-26T09:54:13.815Z,-40.00
2019-03-26T09:55:13.802Z,8.45
2019-03-26T09:56:13.791Z,-40.00
2019-03-26T09:57:13.788Z,-40.00
2019-03-26T09:58:13.781Z,-40.00
2019-03-26T09:59:13.764Z,-40.00
2019-03-26T10:00:13.774Z,8.66
2019-03-26T10:01:13.743Z,8.73
2019-03-26T10:02:13.746Z,8.78
2019-03-26T10:03:13.723Z,8.91
2019-03-26T10:04:13.719Z,8.94
2019-03-26T10:05:13.710Z,8.88
2019-03-26T10:06:23.173Z,8.91
2019-03-26T10:07:21.389Z,9.00
2019-03-26T10:08:13.681Z,9.02
2019-03-26T10:09:13.678Z,9.03
2019-03-26T10:10:13.663Z,8.92
2019-03-26T10:11:13.661Z,8.89
2019-03-26T10:12:13.645Z,8.94
2019-03-26T10:13:13.635Z,-40.00
2019-03-26T10:14:13.626Z,-40.00
2019-03-26T10:15:13.618Z,-40.00
2019-03-26T10:16:13.611Z,-40.00
2019-03-26T10:17:13.599Z,-40.00
2019-03-26T10:18:13.596Z,-40.00
2019-03-26T10:19:16.770Z,-40.00
2019-03-26T10:20:13.568Z,-40.00
2019-03-26T10:21:13.591Z,-40.00
2019-03-26T10:22:13.555Z,-40.00
2019-03-26T10:23:13.547Z,-40.00
2019-03-26T10:24:13.527Z,-40.00
2019-03-26T10:25:13.532Z,-40.00
2019-03-26T10:26:13.512Z,-40.00
2019-03-26T10:27:13.506Z,-40.00
2019-03-26T10:28:13.504Z,-40.00
2019-03-26T10:29:28.784Z,-40.00
2019-03-26T10:30:13.482Z,-40.00
2019-03-26T10:31:13.476Z,-40.00
2019-03-26T10:32:13.458Z,-40.00
2019-03-26T10:33:13.455Z,-40.00
2019-03-26T10:34:13.444Z,9.39
2019-03-26T10:35:13.438Z,9.39
2019-03-26T10:36:13.423Z,9.41
2019-03-26T10:37:13.420Z,9.55
2019-03-26T10:38:13.410Z,-40.00
2019-03-26T10:39:13.400Z,-40.00
2019-03-26T10:40:13.405Z,-40.00
2019-03-26T10:41:13.386Z,-40.00
2019-03-26T10:42:13.380Z,-40.00
2019-03-26T10:43:13.375Z,-40.00
2019-03-26T10:44:13.363Z,-40.00
2019-03-26T10:45:13.345Z,-40.00
2019-03-26T10:46:13.342Z,-40.00
2019-03-26T10:47:13.329Z,-40.00
2019-03-26T10:48:13.336Z,-40.00
2019-03-26T10:49:13.316Z,-40.00
2019-03-26T10:50:13.310Z,-40.00
2019-03-26T10:51:13.304Z,-40.00
2019-03-26T10:52:13.292Z,-40.00
2019-03-26T10:53:13.287Z,-40.00
2019-03-26T10:54:13.277Z,-40.00
2019-03-26T10:55:13.268Z,-40.00
2019-03-26T10:56:13.260Z,-40.00
2019-03-26T10:57:13.255Z,10.26
2019-03-26T10:58:13.268Z,-40.00
2019-03-26T10:59:13.237Z,-40.00
2019-03-26T11:00:13.232Z,10.48
2019-03-26T11:01:13.222Z,10.68
2019-03-26T11:02:13.215Z,10.71
2019-03-26T11:03:13.217Z,-40.00
2019-03-26T11:04:13.198Z,10.71
2019-03-26T11:05:13.198Z,10.74
2019-03-26T11:06:13.183Z,10.57
2019-03-26T11:07:13.178Z,10.41
2019-03-26T11:08:13.175Z,10.41
2019-03-26T11:09:21.408Z,10.41
2019-03-26T11:10:13.166Z,10.38
2019-03-26T11:11:13.148Z,10.40
2019-03-26T11:12:13.144Z,10.44
2019-03-26T11:13:13.136Z,10.42
2019-03-26T11:14:13.133Z,10.57
2019-03-26T11:15:13.121Z,10.54
2019-03-26T11:16:13.128Z,-40.00
2019-03-26T11:17:13.145Z,-40.00
2019-03-26T11:18:13.096Z,10.61
2019-03-26T11:19:13.090Z,10.56
2019-03-26T11:20:13.084Z,10.44
2019-03-26T11:21:13.077Z,10.38
2019-03-26T11:22:13.070Z,10.40
2019-03-26T11:23:13.061Z,10.33
2019-03-26T11:24:13.058Z,10.30
2019-03-26T11:25:13.044Z,10.35
2019-03-26T11:26:13.065Z,10.37
2019-03-26T11:27:13.028Z,10.17
2019-03-26T11:28:13.030Z,10.10
2019-03-26T11:29:13.013Z,10.09
2019-03-26T11:30:13.006Z,9.97
2019-03-26T11:31:12.996Z,9.92
2019-03-26T11:32:12.990Z,9.89
2019-03-26T11:33:12.986Z,9.80
2019-03-26T11:34:12.975Z,9.79
2019-03-26T11:35:12.966Z,9.77
2019-03-26T11:36:12.964Z,9.84
2019-03-26T11:37:12.947Z,9.82
2019-03-26T11:38:12.943Z,9.83
2019-03-26T11:39:12.933Z,9.83
2019-03-26T11:40:12.924Z,9.84
2019-03-26T11:41:12.918Z,9.86
2019-03-26T11:42:12.910Z,9.84
2019-03-26T11:43:12.909Z,9.92
2019-03-26T11:44:12.904Z,10.02
2019-03-26T11:45:12.911Z,10.19
2019-03-26T11:46:12.869Z,10.13
2019-03-26T11:47:12.876Z,10.26
2019-03-26T11:48:12.865Z,10.31
2019-03-26T11:49:12.853Z,10.33
2019-03-26T11:50:12.845Z,10.22
2019-03-26T11:51:12.835Z,10.23
2019-03-26T11:52:12.819Z,10.19
2019-03-26T11:53:12.814Z,10.07
2019-03-26T11:54:12.832Z,9.94
2019-03-26T11:55:12.822Z,9.84
2019-03-26T11:56:12.793Z,9.73
2019-03-26T11:57:12.776Z,-40.00
2019-03-26T11:58:12.778Z,9.65
2019-03-26T11:59:12.767Z,9.74
2019-03-26T12:00:12.761Z,9.66
2019-03-26T12:01:12.762Z,-40.00
2019-03-26T12:02:12.787Z,9.68
2019-03-26T12:03:12.731Z,9.62
2019-03-26T12:04:12.721Z,9.65
2019-03-26T12:05:12.722Z,9.62
2019-03-26T12:06:12.698Z,9.54
2019-03-26T12:07:12.701Z,9.50
2019-03-26T12:08:12.719Z,9.46
2019-03-26T12:09:12.682Z,9.55
2019-03-26T12:10:12.671Z,9.44
2019-03-26T12:11:12.657Z,9.41
2019-03-26T12:12:12.668Z,9.48
2019-03-26T12:13:12.646Z,9.51
2019-03-26T12:14:12.629Z,9.44
2019-03-26T12:15:12.629Z,9.48
2019-03-26T12:16:12.618Z,9.48
2019-03-26T12:17:14.939Z,9.56
2019-03-26T12:18:12.604Z,9.56
2019-03-26T12:19:12.591Z,9.61
2019-03-26T12:20:12.599Z,9.64
2019-03-26T12:21:12.570Z,9.65
2019-03-26T12:22:12.567Z,9.72
2019-03-26T12:23:12.558Z,9.69
2019-03-26T12:24:12.544Z,9.72
2019-03-26T12:25:12.537Z,9.73
2019-03-26T12:26:12.526Z,9.77
2019-03-26T12:27:12.533Z,9.69
2019-03-26T12:28:12.517Z,9.76
2019-03-26T12:29:12.512Z,9.76
2019-03-26T12:30:12.496Z,9.83
2019-03-26T12:31:12.483Z,9.86
2019-03-26T12:32:12.473Z,9.84
2019-03-26T12:33:12.501Z,9.95
2019-03-26T12:34:12.463Z,9.97
2019-03-26T12:35:12.519Z,9.92
2019-03-26T12:36:12.442Z,9.99
2019-03-26T12:37:12.430Z,9.97
2019-03-26T12:38:12.424Z,9.83
2019-03-26T12:39:12.459Z,9.83
2019-03-26T12:40:12.416Z,9.86
2019-03-26T12:41:12.401Z,9.84
2019-03-26T12:42:12.392Z,9.84
2019-03-26T12:43:12.385Z,9.84
2019-03-26T12:44:12.369Z,9.86
2019-03-26T12:45:12.365Z,9.83
2019-03-26T12:46:12.355Z,9.84
2019-03-26T12:47:12.349Z,9.91
2019-03-26T12:48:12.338Z,9.89
2019-03-26T12:49:12.330Z,9.99
2019-03-26T12:50:12.315Z,9.97
2019-03-26T12:51:12.312Z,-40.00
2019-03-26T12:52:12.301Z,9.97
2019-03-26T12:53:12.834Z,9.97
2019-03-26T12:54:12.278Z,9.97
2019-03-26T12:55:12.271Z,9.92
2019-03-26T12:56:12.301Z,9.97
2019-03-26T12:57:13.943Z,9.82
2019-03-26T12:58:12.268Z,9.92
2019-03-26T12:59:12.240Z,9.83
2019-03-26T13:00:12.235Z,9.87